sensor_id;sensor_type;location;lat;lon;timestamp;temperature;humidity
35244;DHT22;37916;52.160;21.066;2023-04-06T00:09:25;2.30;56.10
35244;DHT22;37916;52.160;21.066;2023-04-06T00:19:26;2.30;56.20
35244;DHT22;37916;52.160;21.066;2023-04-06T00:29:27;2.40;55.50
35244;DHT22;37916;52.160;21.066;2023-04-06T00:39:27;2.40;55.50
35244;DHT22;37916;52.160;21.066;2023-04-06T00:49:28;2.40;56.30
35244;DHT22;37916;52.160;21.066;2023-04-06T00:59:32;2.40;56.70
35244;DHT22;37916;52.160;21.066;2023-04-06T01:09:33;2.40;57.00
35244;DHT22;37916;52.160;21.066;2023-04-06T01:19:33;2.30;57.30
35244;DHT22;37916;52.160;21.066;2023-04-06T01:29:37;2.20;57.50
35244;DHT22;37916;52.160;21.066;2023-04-06T01:39:49;2.20;57.00
35244;DHT22;37916;52.160;21.066;2023-04-06T01:49:54;2.20;57.30
35244;DHT22;37916;52.160;21.066;2023-04-06T01:59:54;2.30;57.10
35244;DHT22;37916;52.160;21.066;2023-04-06T02:09:55;2.30;57.10
35244;DHT22;37916;52.160;21.066;2023-04-06T02:19:56;2.20;57.30
35244;DHT22;37916;52.160;21.066;2023-04-06T02:29:57;2.20;57.40
35244;DHT22;37916;52.160;21.066;2023-04-06T02:39:57;2.10;57.90
35244;DHT22;37916;52.160;21.066;2023-04-06T02:49:58;2.10;58.40
35244;DHT22;37916;52.160;21.066;2023-04-06T02:59:59;1.90;59.70
35244;DHT22;37916;52.160;21.066;2023-04-06T03:10:00;1.90;60.50
35244;DHT22;37916;52.160;21.066;2023-04-06T03:20:01;1.80;61.20
35244;DHT22;37916;52.160;21.066;2023-04-06T03:30:03;1.80;61.70
35244;DHT22;37916;52.160;21.066;2023-04-06T03:40:04;1.60;62.80
35244;DHT22;37916;52.160;21.066;2023-04-06T03:50:06;1.50;63.80
35244;DHT22;37916;52.160;21.066;2023-04-06T04:00:07;1.50;64.70
35244;DHT22;37916;52.160;21.066;2023-04-06T04:10:08;1.50;64.50
35244;DHT22;37916;52.160;21.066;2023-04-06T04:20:09;1.40;64.80
35244;DHT22;37916;52.160;21.066;2023-04-06T04:30:10;1.40;64.70
35244;DHT22;37916;52.160;21.066;2023-04-06T04:40:11;1.40;64.50
35244;DHT22;37916;52.160;21.066;2023-04-06T04:50:12;1.50;64.00
35244;DHT22;37916;52.160;21.066;2023-04-06T05:00:19;1.70;63.50
35244;DHT22;37916;52.160;21.066;2023-04-06T05:10:21;1.90;62.40
35244;DHT22;37916;52.160;21.066;2023-04-06T05:20:21;1.90;62.10
35244;DHT22;37916;52.160;21.066;2023-04-06T05:30:22;1.80;62.00
35244;DHT22;37916;52.160;21.066;2023-04-06T05:40:23;2.10;61.60
35244;DHT22;37916;52.160;21.066;2023-04-06T05:50:24;2.30;61.10
35244;DHT22;37916;52.160;21.066;2023-04-06T06:00:27;2.50;61.60
35244;DHT22;37916;52.160;21.066;2023-04-06T06:10:28;2.40;61.10
35244;DHT22;37916;52.160;21.066;2023-04-06T06:20:31;2.60;60.50
35244;DHT22;37916;52.160;21.066;2023-04-06T06:30:32;2.70;60.20
35244;DHT22;37916;52.160;21.066;2023-04-06T06:40:33;2.90;59.30
35244;DHT22;37916;52.160;21.066;2023-04-06T06:50:39;2.90;60.00
35244;DHT22;37916;52.160;21.066;2023-04-06T07:10:58;3.20;60.90
35244;DHT22;37916;52.160;21.066;2023-04-06T07:20:59;2.90;62.20
35244;DHT22;37916;52.160;21.066;2023-04-06T07:31:02;3.20;61.60
35244;DHT22;37916;52.160;21.066;2023-04-06T07:41:03;3.40;60.90
35244;DHT22;37916;52.160;21.066;2023-04-06T07:51:04;3.00;61.40
35244;DHT22;37916;52.160;21.066;2023-04-06T08:01:07;3.10;63.90
35244;DHT22;37916;52.160;21.066;2023-04-06T08:11:08;3.50;63.60
35244;DHT22;37916;52.160;21.066;2023-04-06T08:21:10;3.50;63.80
35244;DHT22;37916;52.160;21.066;2023-04-06T08:31:11;3.70;64.50
35244;DHT22;37916;52.160;21.066;2023-04-06T08:41:30;3.60;64.70
35244;DHT22;37916;52.160;21.066;2023-04-06T08:51:31;3.20;69.10
35244;DHT22;37916;52.160;21.066;2023-04-06T09:01:33;3.10;67.90
35244;DHT22;37916;52.160;21.066;2023-04-06T09:11:48;3.20;68.80
35244;DHT22;37916;52.160;21.066;2023-04-06T09:21:49;3.00;71.70
35244;DHT22;37916;52.160;21.066;2023-04-06T09:31:52;3.10;73.90
35244;DHT22;37916;52.160;21.066;2023-04-06T09:42:04;2.80;72.40
35244;DHT22;37916;52.160;21.066;2023-04-06T09:52:06;2.60;78.50
35244;DHT22;37916;52.160;21.066;2023-04-06T10:02:58;2.40;82.20
35244;DHT22;37916;52.160;21.066;2023-04-06T10:12:35;2.10;83.40
35244;DHT22;37916;52.160;21.066;2023-04-06T10:32:51;2.20;83.10
35244;DHT22;37916;52.160;21.066;2023-04-06T10:43:17;2.10;86.30
35244;DHT22;37916;52.160;21.066;2023-04-06T10:53:23;2.00;86.00
35244;DHT22;37916;52.160;21.066;2023-04-06T11:03:26;2.40;86.90
35244;DHT22;37916;52.160;21.066;2023-04-06T11:13:43;2.40;84.70
35244;DHT22;37916;52.160;21.066;2023-04-06T11:23:50;2.40;85.60
35244;DHT22;37916;52.160;21.066;2023-04-06T11:33:58;2.30;84.50
35244;DHT22;37916;52.160;21.066;2023-04-06T11:44:05;2.10;86.00
35244;DHT22;37916;52.160;21.066;2023-04-06T11:54:05;2.20;88.00
35244;DHT22;37916;52.160;21.066;2023-04-06T12:04:06;2.40;87.00
35244;DHT22;37916;52.160;21.066;2023-04-06T12:14:07;2.60;83.20
35244;DHT22;37916;52.160;21.066;2023-04-06T12:24:08;2.90;82.20
35244;DHT22;37916;52.160;21.066;2023-04-06T12:34:10;3.10;81.00
35244;DHT22;37916;52.160;21.066;2023-04-06T12:44:10;2.80;83.20
35244;DHT22;37916;52.160;21.066;2023-04-06T12:54:11;2.70;85.50
35244;DHT22;37916;52.160;21.066;2023-04-06T13:04:12;2.90;84.40
35244;DHT22;37916;52.160;21.066;2023-04-06T13:14:16;2.70;86.90
35244;DHT22;37916;52.160;21.066;2023-04-06T13:24:16;2.50;89.10
35244;DHT22;37916;52.160;21.066;2023-04-06T13:34:17;2.30;89.80
35244;DHT22;37916;52.160;21.066;2023-04-06T13:44:18;2.30;90.10
35244;DHT22;37916;52.160;21.066;2023-04-06T13:54:22;2.40;91.40
35244;DHT22;37916;52.160;21.066;2023-04-06T14:04:29;2.30;91.60
35244;DHT22;37916;52.160;21.066;2023-04-06T14:14:30;2.30;91.90
35244;DHT22;37916;52.160;21.066;2023-04-06T14:24:30;2.40;92.00
35244;DHT22;37916;52.160;21.066;2023-04-06T14:34:31;2.50;92.30
35244;DHT22;37916;52.160;21.066;2023-04-06T14:44:33;2.40;92.20
35244;DHT22;37916;52.160;21.066;2023-04-06T14:54:37;2.50;92.40
35244;DHT22;37916;52.160;21.066;2023-04-06T15:04:40;2.50;92.40
35244;DHT22;37916;52.160;21.066;2023-04-06T15:14:50;2.60;92.40
35244;DHT22;37916;52.160;21.066;2023-04-06T15:24:51;2.60;92.20
35244;DHT22;37916;52.160;21.066;2023-04-06T15:34:58;2.50;92.00
35244;DHT22;37916;52.160;21.066;2023-04-06T15:45:00;2.50;91.90
35244;DHT22;37916;52.160;21.066;2023-04-06T15:55:02;2.50;92.10
35244;DHT22;37916;52.160;21.066;2023-04-06T16:05:04;2.60;90.80
35244;DHT22;37916;52.160;21.066;2023-04-06T16:15:07;2.60;92.20
35244;DHT22;37916;52.160;21.066;2023-04-06T16:25:11;2.60;92.60
35244;DHT22;37916;52.160;21.066;2023-04-06T16:35:14;2.60;92.80
35244;DHT22;37916;52.160;21.066;2023-04-06T16:45:15;2.60;93.00
35244;DHT22;37916;52.160;21.066;2023-04-06T16:55:19;2.70;93.10
35244;DHT22;37916;52.160;21.066;2023-04-06T17:05:20;2.60;93.20
35244;DHT22;37916;52.160;21.066;2023-04-06T17:15:24;2.70;93.20
35244;DHT22;37916;52.160;21.066;2023-04-06T17:25:25;2.70;93.40
35244;DHT22;37916;52.160;21.066;2023-04-06T17:46:31;2.80;93.50
35244;DHT22;37916;52.160;21.066;2023-04-06T18:27:51;2.90;93.60
35244;DHT22;37916;52.160;21.066;2023-04-06T18:37:52;2.90;93.70
35244;DHT22;37916;52.160;21.066;2023-04-06T18:47:56;3.00;93.70
35244;DHT22;37916;52.160;21.066;2023-04-06T18:58:12;3.00;93.70
35244;DHT22;37916;52.160;21.066;2023-04-06T19:19:44;3.10;93.80
35244;DHT22;37916;52.160;21.066;2023-04-06T19:30:04;3.00;93.80
35244;DHT22;37916;52.160;21.066;2023-04-06T19:40:21;3.00;93.90
35244;DHT22;37916;52.160;21.066;2023-04-06T19:50:22;3.00;94.00
35244;DHT22;37916;52.160;21.066;2023-04-06T20:10:33;3.00;94.10
35244;DHT22;37916;52.160;21.066;2023-04-06T20:20:34;3.10;94.20
35244;DHT22;37916;52.160;21.066;2023-04-06T20:30:38;3.10;94.20
35244;DHT22;37916;52.160;21.066;2023-04-06T20:40:54;3.10;94.20
35244;DHT22;37916;52.160;21.066;2023-04-06T22:08:43;3.50;94.40
35244;DHT22;37916;52.160;21.066;2023-04-06T22:18:44;3.60;94.40
35244;DHT22;37916;52.160;21.066;2023-04-06T22:39:58;3.70;94.40
35244;DHT22;37916;52.160;21.066;2023-04-06T22:50:03;3.70;94.40
35244;DHT22;37916;52.160;21.066;2023-04-06T23:00:09;3.80;94.40
35244;DHT22;37916;52.160;21.066;2023-04-06T23:21:40;3.90;94.40
35244;DHT22;37916;52.160;21.066;2023-04-06T23:32:14;4.00;94.40
